sensor_id;sensor_type;location;lat;lon;timestamp;temperature;humidity
37289;DHT22;23174;49.462;11.000;2022-10-16T00:00:16;16.70;99.90
37289;DHT22;23174;49.462;11.000;2022-10-16T00:02:17;16.70;99.90
37289;DHT22;23174;49.462;11.000;2022-10-16T00:04:18;16.60;99.90
37289;DHT22;23174;49.462;11.000;2022-10-16T00:06:21;16.60;99.90
37289;DHT22;23174;49.462;11.000;2022-10-16T00:08:22;16.60;99.90
37289;DHT22;23174;49.462;11.000;2022-10-16T00:10:22;16.50;99.90
37289;DHT22;23174;49.462;11.000;2022-10-16T00:12:23;16.60;99.90
37289;DHT22;23174;49.462;11.000;2022-10-16T00:14:24;16.50;99.90
37289;DHT22;23174;49.462;11.000;2022-10-16T00:16:24;16.60;99.90
37289;DHT22;23174;49.462;11.000;2022-10-16T00:18:26;16.60;99.90
37289;DHT22;23174;49.462;11.000;2022-10-16T00:20:27;16.60;99.90
37289;DHT22;23174;49.462;11.000;2022-10-16T00:22:28;16.60;99.90
37289;DHT22;23174;49.462;11.000;2022-10-16T00:24:28;16.50;99.90
37289;DHT22;23174;49.462;11.000;2022-10-16T00:26:31;16.50;99.90
37289;DHT22;23174;49.462;11.000;2022-10-16T00:28:32;16.40;99.90
37289;DHT22;23174;49.462;11.000;2022-10-16T00:30:33;16.50;99.90
37289;DHT22;23174;49.462;11.000;2022-10-16T00:32:34;16.40;99.90
37289;DHT22;23174;49.462;11.000;2022-10-16T00:34:35;16.50;99.90
37289;DHT22;23174;49.462;11.000;2022-10-16T00:36:35;16.50;99.90
37289;DHT22;23174;49.462;11.000;2022-10-16T00:38:36;16.50;99.90
37289;DHT22;23174;49.462;11.000;2022-10-16T00:40:38;16.60;99.90
37289;DHT22;23174;49.462;11.000;2022-10-16T00:42:39;16.60;99.90
37289;DHT22;23174;49.462;11.000;2022-10-16T00:44:46;16.60;99.90
37289;DHT22;23174;49.462;11.000;2022-10-16T00:46:47;16.60;99.90
37289;DHT22;23174;49.462;11.000;2022-10-16T00:48:52;16.60;99.90
37289;DHT22;23174;49.462;11.000;2022-10-16T00:50:54;16.50;99.90
37289;DHT22;23174;49.462;11.000;2022-10-16T00:52:57;16.50;99.90
37289;DHT22;23174;49.462;11.000;2022-10-16T00:54:58;16.50;99.90
37289;DHT22;23174;49.462;11.000;2022-10-16T00:57:02;16.50;99.90
37289;DHT22;23174;49.462;11.000;2022-10-16T00:59:06;16.40;99.90
37289;DHT22;23174;49.462;11.000;2022-10-16T01:01:07;16.50;99.90
37289;DHT22;23174;49.462;11.000;2022-10-16T01:03:34;16.50;99.90
37289;DHT22;23174;49.462;11.000;2022-10-16T01:05:48;16.50;99.90
37289;DHT22;23174;49.462;11.000;2022-10-16T01:08:04;16.50;99.90
37289;DHT22;23174;49.462;11.000;2022-10-16T01:10:25;16.50;99.90
37289;DHT22;23174;49.462;11.000;2022-10-16T01:12:43;16.40;99.90
37289;DHT22;23174;49.462;11.000;2022-10-16T01:14:54;16.30;99.90
37289;DHT22;23174;49.462;11.000;2022-10-16T01:17:16;16.30;99.90
37289;DHT22;23174;49.462;11.000;2022-10-16T01:19:31;16.50;99.90
37289;DHT22;23174;49.462;11.000;2022-10-16T01:21:40;16.50;99.90
37289;DHT22;23174;49.462;11.000;2022-10-16T01:28:17;16.40;99.90
37289;DHT22;23174;49.462;11.000;2022-10-16T01:30:26;16.40;99.90
37289;DHT22;23174;49.462;11.000;2022-10-16T01:32:55;16.40;99.90
37289;DHT22;23174;49.462;11.000;2022-10-16T01:35:21;16.30;99.90
37289;DHT22;23174;49.462;11.000;2022-10-16T01:37:40;16.30;99.90
37289;DHT22;23174;49.462;11.000;2022-10-16T01:39:46;16.30;99.90
37289;DHT22;23174;49.462;11.000;2022-10-16T01:41:54;16.30;99.90
37289;DHT22;23174;49.462;11.000;2022-10-16T01:46:07;16.30;99.90
37289;DHT22;23174;49.462;11.000;2022-10-16T01:48:15;16.30;99.90
37289;DHT22;23174;49.462;11.000;2022-10-16T01:50:18;16.30;99.90
37289;DHT22;23174;49.462;11.000;2022-10-16T01:52:23;16.30;99.90
37289;DHT22;23174;49.462;11.000;2022-10-16T01:54:27;16.30;99.90
37289;DHT22;23174;49.462;11.000;2022-10-16T01:56:29;16.30;99.90
37289;DHT22;23174;49.462;11.000;2022-10-16T01:58:30;16.30;99.90
37289;DHT22;23174;49.462;11.000;2022-10-16T02:00:37;16.30;99.90
37289;DHT22;23174;49.462;11.000;2022-10-16T02:02:41;16.30;99.90
37289;DHT22;23174;49.462;11.000;2022-10-16T02:04:50;16.40;99.90
37289;DHT22;23174;49.462;11.000;2022-10-16T02:06:53;16.40;99.90
37289;DHT22;23174;49.462;11.000;2022-10-16T02:08:54;16.30;99.90
37289;DHT22;23174;49.462;11.000;2022-10-16T02:10:56;16.40;99.90
37289;DHT22;23174;49.462;11.000;2022-10-16T02:13:10;16.30;99.90
37289;DHT22;23174;49.462;11.000;2022-10-16T02:15:12;16.30;99.90
37289;DHT22;23174;49.462;11.000;2022-10-16T02:17:15;16.30;99.90
37289;DHT22;23174;49.462;11.000;2022-10-16T02:19:17;16.40;99.90
37289;DHT22;23174;49.462;11.000;2022-10-16T02:21:33;16.40;99.90
37289;DHT22;23174;49.462;11.000;2022-10-16T02:25:40;16.40;99.90
37289;DHT22;23174;49.462;11.000;2022-10-16T02:27:53;16.40;99.90
37289;DHT22;23174;49.462;11.000;2022-10-16T02:30:39;16.40;99.90
37289;DHT22;23174;49.462;11.000;2022-10-16T02:32:23;16.40;99.90
37289;DHT22;23174;49.462;11.000;2022-10-16T02:34:25;16.50;99.90
37289;DHT22;23174;49.462;11.000;2022-10-16T02:36:27;16.50;99.90
37289;DHT22;23174;49.462;11.000;2022-10-16T02:38:29;16.50;99.90
37289;DHT22;23174;49.462;11.000;2022-10-16T02:40:30;16.40;99.90
37289;DHT22;23174;49.462;11.000;2022-10-16T02:42:36;16.50;99.90
37289;DHT22;23174;49.462;11.000;2022-10-16T02:44:37;16.50;99.90
37289;DHT22;23174;49.462;11.000;2022-10-16T02:46:37;16.50;99.90
37289;DHT22;23174;49.462;11.000;2022-10-16T02:48:38;16.50;99.90
37289;DHT22;23174;49.462;11.000;2022-10-16T02:50:39;16.60;99.90
37289;DHT22;23174;49.462;11.000;2022-10-16T02:52:40;16.60;99.90
37289;DHT22;23174;49.462;11.000;2022-10-16T02:54:40;16.50;99.90
37289;DHT22;23174;49.462;11.000;2022-10-16T02:56:41;16.40;99.90
37289;DHT22;23174;49.462;11.000;2022-10-16T02:58:41;16.40;99.90
37289;DHT22;23174;49.462;11.000;2022-10-16T03:00:42;16.40;99.90
37289;DHT22;23174;49.462;11.000;2022-10-16T03:02:43;16.40;99.90
37289;DHT22;23174;49.462;11.000;2022-10-16T03:04:44;16.40;99.90
37289;DHT22;23174;49.462;11.000;2022-10-16T03:06:44;16.40;99.90
37289;DHT22;23174;49.462;11.000;2022-10-16T03:08:45;16.40;99.90
37289;DHT22;23174;49.462;11.000;2022-10-16T03:10:45;16.30;99.90
37289;DHT22;23174;49.462;11.000;2022-10-16T03:12:46;16.30;99.90
37289;DHT22;23174;49.462;11.000;2022-10-16T03:14:47;16.30;99.90
37289;DHT22;23174;49.462;11.000;2022-10-16T03:16:48;16.30;99.90
37289;DHT22;23174;49.462;11.000;2022-10-16T03:18:49;16.30;99.90
37289;DHT22;23174;49.462;11.000;2022-10-16T03:20:50;16.20;99.90
37289;DHT22;23174;49.462;11.000;2022-10-16T03:22:50;16.20;99.90
37289;DHT22;23174;49.462;11.000;2022-10-16T03:24:51;16.20;99.90
37289;DHT22;23174;49.462;11.000;2022-10-16T03:26:51;16.30;99.90
37289;DHT22;23174;49.462;11.000;2022-10-16T03:28:52;16.30;99.90
37289;DHT22;23174;49.462;11.000;2022-10-16T03:30:52;16.30;99.90
37289;DHT22;23174;49.462;11.000;2022-10-16T03:32:53;16.30;99.90
37289;DHT22;23174;49.462;11.000;2022-10-16T03:34:54;16.30;99.90
37289;DHT22;23174;49.462;11.000;2022-10-16T03:36:56;16.30;99.90
37289;DHT22;23174;49.462;11.000;2022-10-16T03:38:57;16.30;99.90
37289;DHT22;23174;49.462;11.000;2022-10-16T03:40:57;16.20;99.90
37289;DHT22;23174;49.462;11.000;2022-10-16T03:42:58;16.20;99.90
37289;DHT22;23174;49.462;11.000;2022-10-16T03:44:59;16.20;99.90
37289;DHT22;23174;49.462;11.000;2022-10-16T03:47:00;16.20;99.90
37289;DHT22;23174;49.462;11.000;2022-10-16T03:49:00;16.20;99.90
37289;DHT22;23174;49.462;11.000;2022-10-16T03:51:01;16.20;99.90
37289;DHT22;23174;49.462;11.000;2022-10-16T03:53:02;16.10;99.90
37289;DHT22;23174;49.462;11.000;2022-10-16T03:55:03;16.10;99.90
37289;DHT22;23174;49.462;11.000;2022-10-16T03:57:04;16.00;99.90
37289;DHT22;23174;49.462;11.000;2022-10-16T03:59:04;16.00;99.90
37289;DHT22;23174;49.462;11.000;2022-10-16T04:01:05;16.00;99.90
37289;DHT22;23174;49.462;11.000;2022-10-16T04:03:06;16.10;99.90
37289;DHT22;23174;49.462;11.000;2022-10-16T04:05:06;16.10;99.90
37289;DHT22;23174;49.462;11.000;2022-10-16T04:07:07;16.10;99.90
37289;DHT22;23174;49.462;11.000;2022-10-16T04:09:08;16.10;99.90
37289;DHT22;23174;49.462;11.000;2022-10-16T04:11:08;16.10;99.90
37289;DHT22;23174;49.462;11.000;2022-10-16T04:13:09;16.20;99.90
37289;DHT22;23174;49.462;11.000;2022-10-16T04:15:10;16.20;99.90
37289;DHT22;23174;49.462;11.000;2022-10-16T04:17:11;16.20;99.90
37289;DHT22;23174;49.462;11.000;2022-10-16T04:19:11;16.20;99.90
37289;DHT22;23174;49.462;11.000;2022-10-16T04:21:12;16.20;99.90
37289;DHT22;23174;49.462;11.000;2022-10-16T04:23:12;16.20;99.90
37289;DHT22;23174;49.462;11.000;2022-10-16T04:25:13;16.30;99.90
37289;DHT22;23174;49.462;11.000;2022-10-16T04:27:14;16.20;99.90
37289;DHT22;23174;49.462;11.000;2022-10-16T04:29:14;16.30;99.90
37289;DHT22;23174;49.462;11.000;2022-10-16T04:31:15;16.20;99.90
37289;DHT22;23174;49.462;11.000;2022-10-16T04:33:15;16.20;99.90
37289;DHT22;23174;49.462;11.000;2022-10-16T04:35:17;16.20;99.90
37289;DHT22;23174;49.462;11.000;2022-10-16T04:37:18;16.20;99.90
37289;DHT22;23174;49.462;11.000;2022-10-16T04:39:19;16.20;99.90
37289;DHT22;23174;49.462;11.000;2022-10-16T04:41:19;16.20;99.90
37289;DHT22;23174;49.462;11.000;2022-10-16T04:43:20;16.10;99.90
37289;DHT22;23174;49.462;11.000;2022-10-16T04:45:21;16.10;99.90
37289;DHT22;23174;49.462;11.000;2022-10-16T04:47:21;16.10;99.90
37289;DHT22;23174;49.462;11.000;2022-10-16T04:49:22;16.10;99.90
37289;DHT22;23174;49.462;11.000;2022-10-16T04:51:22;16.20;99.90
37289;DHT22;23174;49.462;11.000;2022-10-16T04:53:23;16.10;99.90
37289;DHT22;23174;49.462;11.000;2022-10-16T04:55:24;16.20;99.90
37289;DHT22;23174;49.462;11.000;2022-10-16T04:57:24;16.10;99.90
37289;DHT22;23174;49.462;11.000;2022-10-16T04:59:25;16.10;99.90
37289;DHT22;23174;49.462;11.000;2022-10-16T05:01:26;16.20;99.90
37289;DHT22;23174;49.462;11.000;2022-10-16T05:03:26;16.30;99.90
37289;DHT22;23174;49.462;11.000;2022-10-16T05:05:27;16.20;99.90
37289;DHT22;23174;49.462;11.000;2022-10-16T05:07:28;16.20;99.90
37289;DHT22;23174;49.462;11.000;2022-10-16T05:09:28;16.20;99.90
37289;DHT22;23174;49.462;11.000;2022-10-16T05:11:29;16.20;99.90
37289;DHT22;23174;49.462;11.000;2022-10-16T05:13:30;16.10;99.90
37289;DHT22;23174;49.462;11.000;2022-10-16T05:15:30;16.10;99.90
37289;DHT22;23174;49.462;11.000;2022-10-16T05:17:31;16.10;99.90
37289;DHT22;23174;49.462;11.000;2022-10-16T05:19:31;16.10;99.90
37289;DHT22;23174;49.462;11.000;2022-10-16T05:21:32;16.10;99.90
37289;DHT22;23174;49.462;11.000;2022-10-16T05:23:33;16.10;99.90
37289;DHT22;23174;49.462;11.000;2022-10-16T05:25:33;16.10;99.90
37289;DHT22;23174;49.462;11.000;2022-10-16T05:27:34;16.10;99.90
37289;DHT22;23174;49.462;11.000;2022-10-16T05:29:35;16.10;99.90
37289;DHT22;23174;49.462;11.000;2022-10-16T05:31:35;16.00;99.90
37289;DHT22;23174;49.462;11.000;2022-10-16T05:33:36;16.00;99.90
37289;DHT22;23174;49.462;11.000;2022-10-16T05:35:36;16.10;99.90
37289;DHT22;23174;49.462;11.000;2022-10-16T05:37:37;16.10;99.90
37289;DHT22;23174;49.462;11.000;2022-10-16T05:39:38;16.10;99.90
37289;DHT22;23174;49.462;11.000;2022-10-16T05:41:39;16.00;99.90
37289;DHT22;23174;49.462;11.000;2022-10-16T05:43:39;15.90;99.90
37289;DHT22;23174;49.462;11.000;2022-10-16T05:45:40;15.90;99.90
37289;DHT22;23174;49.462;11.000;2022-10-16T05:47:41;15.90;99.90
37289;DHT22;23174;49.462;11.000;2022-10-16T05:49:41;15.90;99.90
37289;DHT22;23174;49.462;11.000;2022-10-16T05:51:42;15.90;99.90
37289;DHT22;23174;49.462;11.000;2022-10-16T05:53:42;15.90;99.90
37289;DHT22;23174;49.462;11.000;2022-10-16T05:55:43;15.90;99.90
37289;DHT22;23174;49.462;11.000;2022-10-16T05:57:54;15.90;99.90
37289;DHT22;23174;49.462;11.000;2022-10-16T05:59:55;15.90;99.90
37289;DHT22;23174;49.462;11.000;2022-10-16T06:01:55;16.00;99.90
37289;DHT22;23174;49.462;11.000;2022-10-16T06:03:56;15.90;99.90
37289;DHT22;23174;49.462;11.000;2022-10-16T06:05:57;16.00;99.90
37289;DHT22;23174;49.462;11.000;2022-10-16T06:07:58;16.00;99.90
37289;DHT22;23174;49.462;11.000;2022-10-16T06:09:58;16.00;99.90
37289;DHT22;23174;49.462;11.000;2022-10-16T06:11:59;16.00;99.90
37289;DHT22;23174;49.462;11.000;2022-10-16T06:14:01;16.00;99.90
37289;DHT22;23174;49.462;11.000;2022-10-16T06:16:03;16.00;99.90
37289;DHT22;23174;49.462;11.000;2022-10-16T06:18:05;16.00;99.90
37289;DHT22;23174;49.462;11.000;2022-10-16T06:20:06;16.00;99.90
37289;DHT22;23174;49.462;11.000;2022-10-16T06:22:06;16.00;99.90
37289;DHT22;23174;49.462;11.000;2022-10-16T06:24:08;16.00;99.90
37289;DHT22;23174;49.462;11.000;2022-10-16T06:26:11;16.10;99.90
37289;DHT22;23174;49.462;11.000;2022-10-16T06:28:13;16.00;99.90
37289;DHT22;23174;49.462;11.000;2022-10-16T06:30:14;16.00;99.90
37289;DHT22;23174;49.462;11.000;2022-10-16T06:32:14;16.10;99.90
37289;DHT22;23174;49.462;11.000;2022-10-16T06:34:15;16.10;99.90
37289;DHT22;23174;49.462;11.000;2022-10-16T06:36:16;16.10;99.90
37289;DHT22;23174;49.462;11.000;2022-10-16T06:38:17;16.10;99.90
37289;DHT22;23174;49.462;11.000;2022-10-16T06:40:18;16.20;99.90
37289;DHT22;23174;49.462;11.000;2022-10-16T06:42:19;16.20;99.90
37289;DHT22;23174;49.462;11.000;2022-10-16T06:44:19;16.20;99.90
37289;DHT22;23174;49.462;11.000;2022-10-16T06:46:22;16.20;99.90
37289;DHT22;23174;49.462;11.000;2022-10-16T06:48:24;16.20;99.90
37289;DHT22;23174;49.462;11.000;2022-10-16T06:50:25;16.20;99.90
37289;DHT22;23174;49.462;11.000;2022-10-16T06:52:28;16.30;99.90
37289;DHT22;23174;49.462;11.000;2022-10-16T06:54:29;16.20;99.90
37289;DHT22;23174;49.462;11.000;2022-10-16T06:56:30;16.30;99.90
37289;DHT22;23174;49.462;11.000;2022-10-16T06:58:31;16.30;99.90
37289;DHT22;23174;49.462;11.000;2022-10-16T07:00:32;16.30;99.90
37289;DHT22;23174;49.462;11.000;2022-10-16T07:02:32;16.30;99.90
37289;DHT22;23174;49.462;11.000;2022-10-16T07:04:33;16.40;99.90
37289;DHT22;23174;49.462;11.000;2022-10-16T07:06:34;16.40;99.90
37289;DHT22;23174;49.462;11.000;2022-10-16T07:08:36;16.40;99.90
37289;DHT22;23174;49.462;11.000;2022-10-16T07:10:37;16.40;99.90
37289;DHT22;23174;49.462;11.000;2022-10-16T07:12:37;16.50;99.90
37289;DHT22;23174;49.462;11.000;2022-10-16T07:14:38;16.40;99.90
37289;DHT22;23174;49.462;11.000;2022-10-16T07:16:38;16.40;99.90
37289;DHT22;23174;49.462;11.000;2022-10-16T07:18:39;16.40;99.90
37289;DHT22;23174;49.462;11.000;2022-10-16T07:20:40;16.40;99.90
37289;DHT22;23174;49.462;11.000;2022-10-16T07:22:41;16.40;99.90
37289;DHT22;23174;49.462;11.000;2022-10-16T07:24:41;16.40;99.90
37289;DHT22;23174;49.462;11.000;2022-10-16T07:26:44;16.50;99.90
37289;DHT22;23174;49.462;11.000;2022-10-16T07:28:46;16.50;99.90
37289;DHT22;23174;49.462;11.000;2022-10-16T07:30:47;16.50;99.90
37289;DHT22;23174;49.462;11.000;2022-10-16T07:32:47;16.50;99.90
37289;DHT22;23174;49.462;11.000;2022-10-16T07:34:48;16.50;99.90
37289;DHT22;23174;49.462;11.000;2022-10-16T07:36:49;16.50;99.90
37289;DHT22;23174;49.462;11.000;2022-10-16T07:38:50;16.50;99.90
37289;DHT22;23174;49.462;11.000;2022-10-16T07:41:03;16.50;99.90
37289;DHT22;23174;49.462;11.000;2022-10-16T07:43:03;16.50;99.90
37289;DHT22;23174;49.462;11.000;2022-10-16T07:45:06;16.50;99.90
37289;DHT22;23174;49.462;11.000;2022-10-16T07:47:07;16.60;99.90
37289;DHT22;23174;49.462;11.000;2022-10-16T07:49:08;16.60;99.90
37289;DHT22;23174;49.462;11.000;2022-10-16T07:51:09;16.60;99.90
37289;DHT22;23174;49.462;11.000;2022-10-16T07:53:10;16.60;99.90
37289;DHT22;23174;49.462;11.000;2022-10-16T07:55:11;16.60;99.90
37289;DHT22;23174;49.462;11.000;2022-10-16T07:57:12;16.60;99.90
37289;DHT22;23174;49.462;11.000;2022-10-16T07:59:18;16.60;99.90
37289;DHT22;23174;49.462;11.000;2022-10-16T08:01:19;16.60;99.90
37289;DHT22;23174;49.462;11.000;2022-10-16T08:03:20;16.60;99.90
37289;DHT22;23174;49.462;11.000;2022-10-16T08:05:21;16.70;99.90
37289;DHT22;23174;49.462;11.000;2022-10-16T08:07:21;16.70;99.90
37289;DHT22;23174;49.462;11.000;2022-10-16T08:09:22;16.80;99.90
37289;DHT22;23174;49.462;11.000;2022-10-16T08:11:23;16.80;99.90
37289;DHT22;23174;49.462;11.000;2022-10-16T08:13:23;16.90;99.90
37289;DHT22;23174;49.462;11.000;2022-10-16T08:15:24;16.90;99.90
37289;DHT22;23174;49.462;11.000;2022-10-16T08:17:25;16.90;99.90
37289;DHT22;23174;49.462;11.000;2022-10-16T08:19:25;16.90;99.90
37289;DHT22;23174;49.462;11.000;2022-10-16T08:21:26;16.90;99.90
37289;DHT22;23174;49.462;11.000;2022-10-16T08:23:27;16.90;99.90
37289;DHT22;23174;49.462;11.000;2022-10-16T08:25:28;16.90;99.90
37289;DHT22;23174;49.462;11.000;2022-10-16T08:27:32;16.90;99.90
37289;DHT22;23174;49.462;11.000;2022-10-16T08:29:33;16.90;99.90
37289;DHT22;23174;49.462;11.000;2022-10-16T08:31:33;16.90;99.90
37289;DHT22;23174;49.462;11.000;2022-10-16T08:33:34;16.90;99.90
37289;DHT22;23174;49.462;11.000;2022-10-16T08:35:35;17.00;99.90
37289;DHT22;23174;49.462;11.000;2022-10-16T08:37:36;17.00;99.90
37289;DHT22;23174;49.462;11.000;2022-10-16T08:39:37;17.00;99.90
37289;DHT22;23174;49.462;11.000;2022-10-16T08:50:42;17.20;99.90
37289;DHT22;23174;49.462;11.000;2022-10-16T08:52:43;17.30;99.90
37289;DHT22;23174;49.462;11.000;2022-10-16T08:54:48;17.30;99.90
37289;DHT22;23174;49.462;11.000;2022-10-16T08:56:50;17.40;99.90
37289;DHT22;23174;49.462;11.000;2022-10-16T08:58:52;17.30;99.90
37289;DHT22;23174;49.462;11.000;2022-10-16T09:00:55;17.30;99.90
37289;DHT22;23174;49.462;11.000;2022-10-16T09:03:22;17.40;99.90
37289;DHT22;23174;49.462;11.000;2022-10-16T09:10:58;17.50;99.90
37289;DHT22;23174;49.462;11.000;2022-10-16T09:19:42;17.90;99.90
37289;DHT22;23174;49.462;11.000;2022-10-16T09:21:45;17.80;99.90
37289;DHT22;23174;49.462;11.000;2022-10-16T09:23:46;17.90;99.90
37289;DHT22;23174;49.462;11.000;2022-10-16T09:25:49;17.90;99.90
37289;DHT22;23174;49.462;11.000;2022-10-16T09:27:52;17.90;99.90
37289;DHT22;23174;49.462;11.000;2022-10-16T09:29:54;17.90;99.90
37289;DHT22;23174;49.462;11.000;2022-10-16T09:31:57;17.90;99.90
37289;DHT22;23174;49.462;11.000;2022-10-16T09:34:35;17.90;99.90
37289;DHT22;23174;49.462;11.000;2022-10-16T09:36:43;17.90;99.90
37289;DHT22;23174;49.462;11.000;2022-10-16T09:38:45;17.90;99.90
37289;DHT22;23174;49.462;11.000;2022-10-16T09:40:45;17.90;99.90
37289;DHT22;23174;49.462;11.000;2022-10-16T09:42:46;17.90;99.90
37289;DHT22;23174;49.462;11.000;2022-10-16T09:44:49;17.90;99.90
37289;DHT22;23174;49.462;11.000;2022-10-16T09:47:04;17.80;99.90
37289;DHT22;23174;49.462;11.000;2022-10-16T09:49:20;17.80;99.90
37289;DHT22;23174;49.462;11.000;2022-10-16T09:51:31;17.80;99.90
37289;DHT22;23174;49.462;11.000;2022-10-16T09:53:43;17.80;99.90
37289;DHT22;23174;49.462;11.000;2022-10-16T09:55:50;17.70;99.90
37289;DHT22;23174;49.462;11.000;2022-10-16T09:57:52;17.70;99.90
37289;DHT22;23174;49.462;11.000;2022-10-16T09:59:54;17.70;99.90
37289;DHT22;23174;49.462;11.000;2022-10-16T10:01:55;17.80;99.90
37289;DHT22;23174;49.462;11.000;2022-10-16T10:03:57;17.90;99.90
37289;DHT22;23174;49.462;11.000;2022-10-16T10:06:16;17.90;99.90
37289;DHT22;23174;49.462;11.000;2022-10-16T10:08:18;17.90;99.90
37289;DHT22;23174;49.462;11.000;2022-10-16T10:10:27;18.00;99.90
37289;DHT22;23174;49.462;11.000;2022-10-16T10:12:29;17.90;99.90
37289;DHT22;23174;49.462;11.000;2022-10-16T10:14:38;18.00;99.90
37289;DHT22;23174;49.462;11.000;2022-10-16T10:16:40;18.00;99.90
37289;DHT22;23174;49.462;11.000;2022-10-16T10:18:41;18.10;99.90
37289;DHT22;23174;49.462;11.000;2022-10-16T10:20:41;18.10;99.90
37289;DHT22;23174;49.462;11.000;2022-10-16T10:22:43;18.20;99.90
37289;DHT22;23174;49.462;11.000;2022-10-16T10:27:10;18.40;99.90
37289;DHT22;23174;49.462;11.000;2022-10-16T10:33:53;18.50;99.90
37289;DHT22;23174;49.462;11.000;2022-10-16T10:36:22;18.60;99.90
37289;DHT22;23174;49.462;11.000;2022-10-16T10:43:22;18.70;99.90
37289;DHT22;23174;49.462;11.000;2022-10-16T10:45:38;18.80;99.90
37289;DHT22;23174;49.462;11.000;2022-10-16T10:47:51;18.80;99.90
37289;DHT22;23174;49.462;11.000;2022-10-16T10:50:14;18.80;99.90
37289;DHT22;23174;49.462;11.000;2022-10-16T10:54:57;18.80;99.90
37289;DHT22;23174;49.462;11.000;2022-10-16T10:57:10;18.90;99.90
37289;DHT22;23174;49.462;11.000;2022-10-16T10:59:37;19.00;99.90
37289;DHT22;23174;49.462;11.000;2022-10-16T11:01:55;18.90;99.90
37289;DHT22;23174;49.462;11.000;2022-10-16T11:06:55;19.00;99.90
37289;DHT22;23174;49.462;11.000;2022-10-16T11:11:05;19.10;99.90
37289;DHT22;23174;49.462;11.000;2022-10-16T11:15:43;19.10;99.90
37289;DHT22;23174;49.462;11.000;2022-10-16T11:18:13;19.20;99.90
37289;DHT22;23174;49.462;11.000;2022-10-16T11:20:32;19.20;99.90
37289;DHT22;23174;49.462;11.000;2022-10-16T11:22:36;19.30;99.90
37289;DHT22;23174;49.462;11.000;2022-10-16T11:24:48;19.30;99.90
37289;DHT22;23174;49.462;11.000;2022-10-16T11:26:53;19.40;99.90
37289;DHT22;23174;49.462;11.000;2022-10-16T11:28:56;19.40;99.90
37289;DHT22;23174;49.462;11.000;2022-10-16T11:31:14;19.40;99.90
37289;DHT22;23174;49.462;11.000;2022-10-16T11:35:32;19.50;99.90
37289;DHT22;23174;49.462;11.000;2022-10-16T11:37:42;19.50;99.90
37289;DHT22;23174;49.462;11.000;2022-10-16T11:39:44;19.60;99.90
37289;DHT22;23174;49.462;11.000;2022-10-16T11:41:51;19.70;99.90
37289;DHT22;23174;49.462;11.000;2022-10-16T11:46:12;19.70;99.90
37289;DHT22;23174;49.462;11.000;2022-10-16T11:50:43;19.80;99.90
37289;DHT22;23174;49.462;11.000;2022-10-16T11:55:21;19.90;99.90
37289;DHT22;23174;49.462;11.000;2022-10-16T11:57:32;19.90;99.90
37289;DHT22;23174;49.462;11.000;2022-10-16T11:59:47;20.00;99.90
37289;DHT22;23174;49.462;11.000;2022-10-16T12:02:28;20.00;99.90
37289;DHT22;23174;49.462;11.000;2022-10-16T12:04:43;20.00;99.90
37289;DHT22;23174;49.462;11.000;2022-10-16T12:07:00;20.00;99.90
37289;DHT22;23174;49.462;11.000;2022-10-16T12:12:00;20.10;99.90
37289;DHT22;23174;49.462;11.000;2022-10-16T12:18:25;20.40;99.90
37289;DHT22;23174;49.462;11.000;2022-10-16T12:20:31;20.50;99.90
37289;DHT22;23174;49.462;11.000;2022-10-16T12:22:32;20.70;99.90
37289;DHT22;23174;49.462;11.000;2022-10-16T12:24:42;20.70;99.90
37289;DHT22;23174;49.462;11.000;2022-10-16T12:26:44;20.90;99.90
37289;DHT22;23174;49.462;11.000;2022-10-16T12:28:46;20.90;99.90
37289;DHT22;23174;49.462;11.000;2022-10-16T12:31:06;21.10;99.90
37289;DHT22;23174;49.462;11.000;2022-10-16T12:33:31;20.90;99.90
37289;DHT22;23174;49.462;11.000;2022-10-16T12:35:35;20.90;99.90
37289;DHT22;23174;49.462;11.000;2022-10-16T12:37:38;20.90;99.90
37289;DHT22;23174;49.462;11.000;2022-10-16T12:39:38;20.80;99.90
37289;DHT22;23174;49.462;11.000;2022-10-16T12:41:39;20.80;99.90
37289;DHT22;23174;49.462;11.000;2022-10-16T12:43:44;20.80;99.90
37289;DHT22;23174;49.462;11.000;2022-10-16T12:45:45;20.80;99.90
37289;DHT22;23174;49.462;11.000;2022-10-16T12:47:51;20.80;99.90
37289;DHT22;23174;49.462;11.000;2022-10-16T12:49:54;20.80;99.90
37289;DHT22;23174;49.462;11.000;2022-10-16T12:51:55;20.80;99.90
37289;DHT22;23174;49.462;11.000;2022-10-16T12:54:18;20.80;99.90
37289;DHT22;23174;49.462;11.000;2022-10-16T12:56:48;20.70;99.90
37289;DHT22;23174;49.462;11.000;2022-10-16T12:59:01;20.70;99.90
37289;DHT22;23174;49.462;11.000;2022-10-16T13:01:29;20.70;99.90
37289;DHT22;23174;49.462;11.000;2022-10-16T13:10:53;20.80;99.90
37289;DHT22;23174;49.462;11.000;2022-10-16T13:13:23;20.70;99.90
37289;DHT22;23174;49.462;11.000;2022-10-16T13:15:55;20.70;99.90
37289;DHT22;23174;49.462;11.000;2022-10-16T13:18:13;20.80;99.90
37289;DHT22;23174;49.462;11.000;2022-10-16T13:22:44;20.90;99.90
37289;DHT22;23174;49.462;11.000;2022-10-16T13:25:18;20.90;99.90
37289;DHT22;23174;49.462;11.000;2022-10-16T13:27:48;20.90;99.90
37289;DHT22;23174;49.462;11.000;2022-10-16T13:30:08;20.80;99.90
37289;DHT22;23174;49.462;11.000;2022-10-16T13:32:11;20.80;99.90
37289;DHT22;23174;49.462;11.000;2022-10-16T13:34:18;20.80;99.90
37289;DHT22;23174;49.462;11.000;2022-10-16T13:36:22;20.70;99.90
37289;DHT22;23174;49.462;11.000;2022-10-16T13:38:28;20.80;99.90
37289;DHT22;23174;49.462;11.000;2022-10-16T13:40:28;21.00;99.90
37289;DHT22;23174;49.462;11.000;2022-10-16T13:42:29;20.90;99.90
37289;DHT22;23174;49.462;11.000;2022-10-16T13:44:36;21.10;99.90
37289;DHT22;23174;49.462;11.000;2022-10-16T13:46:39;21.40;99.90
37289;DHT22;23174;49.462;11.000;2022-10-16T13:48:40;21.50;99.90
37289;DHT22;23174;49.462;11.000;2022-10-16T13:50:42;21.60;99.90
37289;DHT22;23174;49.462;11.000;2022-10-16T13:52:42;21.60;99.90
37289;DHT22;23174;49.462;11.000;2022-10-16T13:54:43;21.60;99.90
37289;DHT22;23174;49.462;11.000;2022-10-16T13:56:43;21.60;99.90
37289;DHT22;23174;49.462;11.000;2022-10-16T13:58:44;21.50;99.90
37289;DHT22;23174;49.462;11.000;2022-10-16T14:01:03;21.50;99.90
37289;DHT22;23174;49.462;11.000;2022-10-16T14:03:11;21.50;99.90
37289;DHT22;23174;49.462;11.000;2022-10-16T14:05:14;21.40;99.90
37289;DHT22;23174;49.462;11.000;2022-10-16T14:07:20;21.50;99.90
37289;DHT22;23174;49.462;11.000;2022-10-16T14:09:30;21.60;99.90
37289;DHT22;23174;49.462;11.000;2022-10-16T14:11:31;21.50;99.90